Time;durP1;ratioP1;P1;durP2;ratioP2;P2;SDS_P1;SDS_P2;PMS_P1;PMS_P2;Temp;Humidity;BMP_temperature;BMP_pressure;BME280_temperature;BME280_humidity;BME280_pressure;Samples;Min_cycle;Max_cycle;Signal;HPM_P1;HPM_P2
2021/03/25 00:01:57;;;;;;;10.55;4.30;;;2.70;54.40;;;;;;1796359;79;21560;-76
2021/03/25 00:04:26;;;;;;;12.82;4.83;;;2.70;54.40;;;;;;1796440;80;21555;-77
2021/03/25 00:06:59;;;;;;;11.55;4.70;;;2.80;54.20;;;;;;1796300;80;21102;-77
2021/03/25 00:09:38;;;;;;;11.68;5.00;;;2.70;54.20;;;;;;1796210;79;21177;-77
2021/03/25 00:12:08;;;;;;;9.75;3.83;;;2.60;54.20;;;;;;1796235;79;21161;-77
2021/03/25 00:14:36;;;;;;;10.43;4.05;;;2.50;54.40;;;;;;1796195;79;21137;-78
2021/03/25 00:17:04;;;;;;;8.75;4.00;;;2.70;55.40;;;;;;1796229;79;21110;-77
2021/03/25 00:19:32;;;;;;;12.10;4.45;;;2.60;54.00;;;;;;1796301;79;21544;-76
2021/03/25 00:22:00;;;;;;;13.18;4.70;;;2.50;54.00;;;;;;1796200;79;21138;-76
2021/03/25 00:24:27;;;;;;;9.33;4.00;;;2.60;54.70;;;;;;1796589;79;21315;-76
2021/03/25 00:26:55;;;;;;;10.58;4.33;;;2.80;53.80;;;;;;1796418;80;21283;-77
2021/03/25 00:29:23;;;;;;;10.48;3.98;;;2.80;53.60;;;;;;1796181;80;21153;-76
2021/03/25 00:31:50;;;;;;;11.75;3.90;;;2.70;53.30;;;;;;1796210;79;21141;-77
2021/03/25 00:34:18;;;;;;;7.33;3.65;;;2.80;53.50;;;;;;1796175;80;21134;-76
2021/03/25 00:36:46;;;;;;;8.35;3.87;;;2.60;53.00;;;;;;1796201;79;21145;-77
2021/03/25 00:39:14;;;;;;;9.28;3.62;;;2.70;53.30;;;;;;1796304;80;21125;-77
2021/03/25 00:41:42;;;;;;;9.30;3.70;;;2.80;53.30;;;;;;1796452;80;21275;-77
2021/03/25 00:44:12;;;;;;;7.25;3.05;;;2.80;53.40;;;;;;1796297;79;21596;-77
2021/03/25 00:46:42;;;;;;;8.48;3.33;;;2.80;53.50;;;;;;1796192;80;21130;-76
2021/03/25 00:49:11;;;;;;;7.70;3.58;;;2.70;53.50;;;;;;1795608;79;21153;-76
2021/03/25 00:51:38;;;;;;;9.13;3.62;;;2.70;53.30;;;;;;1792251;79;21260;-76
2021/03/25 00:54:07;;;;;;;7.78;3.47;;;2.80;53.10;;;;;;1792448;80;21131;-75
2021/03/25 00:56:37;;;;;;;8.23;3.90;;;2.50;52.90;;;;;;1792394;79;21623;-76
2021/03/25 00:59:05;;;;;;;9.73;3.47;;;2.40;53.30;;;;;;1792398;79;21319;-76
2021/03/25 01:01:34;;;;;;;11.55;4.60;;;2.40;53.70;;;;;;1792301;79;21137;-76
2021/03/25 01:04:02;;;;;;;8.48;3.40;;;2.30;53.60;;;;;;1792270;79;21267;-76
2021/03/25 01:06:30;;;;;;;9.83;4.50;;;2.20;53.80;;;;;;1792277;79;21727;-76
2021/03/25 01:08:58;;;;;;;8.20;3.65;;;2.10;54.30;;;;;;1792240;79;21299;-76
2021/03/25 01:11:30;;;;;;;11.15;3.80;;;2.00;54.40;;;;;;1792434;79;21141;-76
2021/03/25 01:14:03;;;;;;;8.18;3.47;;;2.10;54.20;;;;;;1772505;80;21137;-75
2021/03/25 01:16:36;;;;;;;8.48;3.67;;;2.10;54.10;;;;;;1792048;80;21146;-75
2021/03/25 01:19:15;;;;;;;7.35;3.70;;;2.10;54.50;;;;;;1791975;80;21287;-75
2021/03/25 01:21:45;;;;;;;9.05;3.65;;;2.20;55.10;;;;;;1790979;80;21291;-75
2021/03/25 01:24:13;;;;;;;10.75;3.72;;;2.20;54.90;;;;;;1792260;79;21279;-75
2021/03/25 01:26:41;;;;;;;10.23;3.70;;;2.30;54.80;;;;;;1792431;80;21213;-75
2021/03/25 01:29:11;;;;;;;6.97;3.20;;;2.30;54.30;;;;;;1792406;79;21145;-75
2021/03/25 01:31:39;;;;;;;10.23;3.70;;;2.50;54.00;;;;;;1792433;79;21138;-74
2021/03/25 01:34:14;;;;;;;7.10;2.90;;;2.60;53.60;;;;;;1792397;79;21113;-75
2021/03/25 01:36:45;;;;;;;7.83;2.87;;;2.70;53.30;;;;;;1792444;79;21141;-75
2021/03/25 01:39:13;;;;;;;8.60;3.87;;;2.80;53.00;;;;;;1792350;79;21299;-75
2021/03/25 01:41:43;;;;;;;9.43;3.55;;;2.80;52.70;;;;;;1792529;79;21137;-75
2021/03/25 01:44:39;;;;;;;11.20;4.17;;;2.70;52.60;;;;;;1792414;80;21717;-74
2021/03/25 01:47:10;;;;;;;12.88;4.17;;;2.60;52.30;;;;;;1792382;80;21129;-75
2021/03/25 01:49:40;;;;;;;9.33;3.50;;;2.50;53.10;;;;;;1792946;79;21675;-74
2021/03/25 01:52:25;;;;;;;11.03;4.10;;;2.50;53.60;;;;;;1796141;80;21141;-74
2021/03/25 01:55:42;;;;;;;10.78;4.37;;;2.50;54.40;;;;;;1779030;80;21122;-74
2021/03/25 01:58:29;;;;;;;13.15;4.70;;;2.70;55.60;;;;;;1796165;79;21141;-74
2021/03/25 02:01:15;;;;;;;10.82;4.83;;;2.70;55.30;;;;;;1796534;80;21272;-74
2021/03/25 02:04:09;;;;;;;9.03;4.10;;;2.50;54.80;;;;;;1791941;80;21647;-74
2021/03/25 02:06:46;;;;;;;10.32;4.53;;;2.40;55.30;;;;;;1796133;80;21552;-73
2021/03/25 02:09:50;;;;;;;9.93;4.33;;;2.50;55.60;;;;;;1795859;79;21599;-73
2021/03/25 02:12:57;;;;;;;10.13;4.55;;;2.60;55.80;;;;;;1789871;80;21177;-74
2021/03/25 02:15:40;;;;;;;9.05;4.15;;;2.60;55.90;;;;;;1796506;80;21294;-74
2021/03/25 02:18:18;;;;;;;10.32;4.15;;;2.50;55.20;;;;;;1796125;79;21117;-75
2021/03/25 02:21:19;;;;;;;8.48;3.87;;;2.40;54.80;;;;;;1795320;80;21152;-75
2021/03/25 02:24:16;;;;;;;9.08;3.62;;;2.40;54.70;;;;;;1795585;80;21160;-75
2021/03/25 02:26:50;;;;;;;7.33;3.50;;;2.40;55.00;;;;;;1796242;79;21148;-75
2021/03/25 02:29:54;;;;;;;11.73;3.60;;;2.50;54.80;;;;;;1796099;80;21567;-74
2021/03/25 02:32:30;;;;;;;9.10;3.40;;;2.40;53.90;;;;;;1796282;80;21153;-73
2021/03/25 02:35:05;;;;;;;8.93;3.40;;;2.20;54.20;;;;;;1795918;80;21136;-75
2021/03/25 02:37:38;;;;;;;7.58;3.45;;;2.10;54.30;;;;;;1795956;79;21892;-74
2021/03/25 02:40:24;;;;;;;8.25;3.05;;;2.20;54.40;;;;;;1769489;80;21572;-74
2021/03/25 02:43:01;;;;;;;12.28;3.55;;;2.10;54.70;;;;;;1779875;80;21157;-74
2021/03/25 02:45:34;;;;;;;9.43;3.40;;;2.20;54.90;;;;;;1795662;80;21607;-73
2021/03/25 02:48:13;;;;;;;11.97;3.17;;;2.10;54.80;;;;;;1769288;80;21140;-74
2021/03/25 02:50:47;;;;;;;8.35;3.60;;;2.10;55.10;;;;;;1762941;80;21153;-74
2021/03/25 02:53:38;;;;;;;8.08;3.30;;;2.00;55.40;;;;;;1786775;80;21145;-74
2021/03/25 02:56:15;;;;;;;7.40;3.30;;;2.00;55.40;;;;;;1787013;80;21615;-74
2021/03/25 02:58:49;;;;;;;8.18;3.40;;;1.90;55.00;;;;;;1781304;80;21230;-75
2021/03/25 03:01:19;;;;;;;7.03;3.00;;;1.80;54.80;;;;;;1756439;80;21283;-75
2021/03/25 03:04:05;;;;;;;10.78;3.87;;;1.90;55.20;;;;;;1786951;80;21148;-75
2021/03/25 03:06:42;;;;;;;7.70;3.47;;;2.00;55.40;;;;;;1786076;80;21136;-75
2021/03/25 03:09:26;;;;;;;7.80;3.17;;;2.00;55.40;;;;;;1786900;80;21153;-75
2021/03/25 03:12:01;;;;;;;8.68;3.72;;;1.90;55.00;;;;;;1785657;80;21217;-75
2021/03/25 03:14:47;;;;;;;10.10;3.37;;;2.00;54.90;;;;;;1786938;80;21152;-75
2021/03/25 03:17:32;;;;;;;9.63;3.37;;;2.00;54.80;;;;;;1787215;80;21153;-76
2021/03/25 03:20:34;;;;;;;7.35;2.92;;;1.90;55.00;;;;;;1783250;80;21106;-76
2021/03/25 03:23:04;;;;;;;6.87;3.50;;;1.80;55.70;;;;;;1783925;80;21129;-76
2021/03/25 03:25:32;;;;;;;7.45;2.80;;;1.60;55.70;;;;;;1786926;80;21145;-76
2021/03/25 03:28:18;;;;;;;8.25;3.47;;;1.60;56.20;;;;;;1786887;80;21144;-76
2021/03/25 03:30:55;;;;;;;6.85;3.02;;;1.60;56.70;;;;;;1786980;80;21603;-76
2021/03/25 03:33:32;;;;;;;7.62;3.20;;;1.50;56.10;;;;;;1787024;80;21582;-76
2021/03/25 03:36:11;;;;;;;8.83;3.95;;;1.50;56.70;;;;;;1786983;80;21121;-75
2021/03/25 03:38:44;;;;;;;7.53;3.70;;;1.50;56.50;;;;;;1787154;80;21129;-75
2021/03/25 03:41:25;;;;;;;8.63;3.80;;;1.40;56.40;;;;;;1786568;80;21141;-75
2021/03/25 03:43:55;;;;;;;8.33;3.20;;;1.30;57.00;;;;;;1787164;80;21552;-75
2021/03/25 03:46:28;;;;;;;8.53;3.50;;;1.30;56.20;;;;;;1787264;80;21150;-75
2021/03/25 03:49:04;;;;;;;8.33;3.20;;;1.30;56.50;;;;;;1756397;80;21142;-75
2021/03/25 03:51:36;;;;;;;;;;;1.50;56.80;;;;;;1791927;80;21599;-76
2021/03/25 03:54:06;;;;;;;6.35;2.98;;;1.50;56.60;;;;;;1790408;80;20120;-75
2021/03/25 03:57:10;;;;;;;6.33;3.02;;;1.70;56.20;;;;;;1790492;80;21129;-76
2021/03/25 03:59:47;;;;;;;8.10;3.20;;;1.70;55.60;;;;;;1752478;81;21180;-75
2021/03/25 04:02:56;;;;;;;7.90;2.72;;;1.70;55.40;;;;;;1848839;76;21220;-74
2021/03/25 04:05:54;;;;;;;6.33;3.02;;;1.60;55.30;;;;;;1860411;77;21579;-74
2021/03/25 04:08:38;;;;;;;7.30;2.83;;;1.70;56.50;;;;;;1858791;77;21141;-74
2021/03/25 04:11:40;;;;;;;9.08;3.05;;;1.80;56.30;;;;;;1860435;77;21290;-75
2021/03/25 04:14:16;;;;;;;11.33;3.02;;;1.80;55.50;;;;;;1860350;77;21267;-76
2021/03/25 04:16:48;;;;;;;7.97;2.98;;;1.80;55.40;;;;;;1856995;77;21140;-76
2021/03/25 04:19:26;;;;;;;5.85;2.65;;;1.90;55.10;;;;;;1860537;77;21786;-76
2021/03/25 04:22:22;;;;;;;5.10;2.40;;;1.80;55.20;;;;;;1860267;77;21288;-76
2021/03/25 04:25:16;;;;;;;5.25;2.40;;;1.80;54.90;;;;;;1860204;77;21291;-76
2021/03/25 04:27:52;;;;;;;8.10;2.83;;;1.80;54.80;;;;;;1822552;77;21137;-76
2021/03/25 04:30:31;;;;;;;6.35;2.30;;;1.60;55.20;;;;;;1860654;77;21666;-76
2021/03/25 04:32:59;;;;;;;4.78;2.42;;;1.60;55.70;;;;;;1860426;77;21678;-77
2021/03/25 04:35:27;;;;;;;4.37;2.35;;;1.50;55.80;;;;;;1827394;77;21121;-77
2021/03/25 04:37:57;;;;;;;6.37;2.75;;;1.60;56.30;;;;;;1860323;77;21291;-77
2021/03/25 04:40:30;;;;;;;7.05;2.72;;;1.50;55.80;;;;;;1860490;77;21140;-77
2021/03/25 04:42:59;;;;;;;7.08;2.75;;;1.60;56.10;;;;;;1860519;77;21524;-77
2021/03/25 04:46:00;;;;;;;11.10;2.70;;;1.60;56.50;;;;;;1860493;77;21164;-77
2021/03/25 04:48:43;;;;;;;7.15;2.50;;;1.60;56.00;;;;;;1851374;77;21290;-77
2021/03/25 04:51:19;;;;;;;10.80;2.08;;;1.70;55.70;;;;;;1814021;79;21162;-75
2021/03/25 04:53:50;;;;;;;5.47;2.30;;;1.80;55.30;;;;;;1814430;79;21126;-75
2021/03/25 04:56:22;;;;;;;8.50;2.37;;;1.90;56.00;;;;;;1814322;79;21157;-75
2021/03/25 04:58:55;;;;;;;6.35;2.45;;;2.00;55.90;;;;;;1814496;78;21154;-76
2021/03/25 05:01:28;;;;;;;4.17;2.10;;;2.10;55.70;;;;;;1814561;79;21139;-76
2021/03/25 05:04:00;;;;;;;7.25;2.62;;;2.10;54.50;;;;;;1814476;79;21127;-76
2021/03/25 05:06:33;;;;;;;5.58;2.25;;;2.20;54.90;;;;;;1814316;79;21099;-76
2021/03/25 05:09:01;;;;;;;6.58;2.80;;;2.10;55.00;;;;;;1813427;79;21107;-76
2021/03/25 05:11:29;;;;;;;5.78;2.80;;;2.00;55.20;;;;;;1814269;79;21122;-74
2021/03/25 05:13:59;;;;;;;5.17;2.37;;;2.00;55.90;;;;;;1812619;79;21565;-75
2021/03/25 05:16:57;;;;;;;16.95;2.75;;;2.10;55.10;;;;;;1813994;79;21145;-75
2021/03/25 05:19:45;;;;;;;5.87;2.50;;;2.10;54.30;;;;;;1813735;79;21100;-75
2021/03/25 05:22:37;;;;;;;6.28;2.92;;;2.10;54.30;;;;;;1813978;79;21568;-75
2021/03/25 05:25:28;;;;;;;6.25;2.92;;;2.10;54.60;;;;;;1813910;79;21261;-75
2021/03/25 05:28:10;;;;;;;7.80;3.00;;;2.00;54.60;;;;;;1798216;79;21158;-76
2021/03/25 05:30:41;;;;;;;5.53;2.22;;;2.10;54.90;;;;;;1813068;79;21135;-77
2021/03/25 05:33:17;;;;;;;4.45;2.25;;;2.10;54.80;;;;;;1813786;79;21276;-75
2021/03/25 05:35:56;;;;;;;6.70;2.70;;;2.10;55.00;;;;;;1813753;79;21284;-76
2021/03/25 05:38:24;;;;;;;6.58;2.98;;;2.10;54.80;;;;;;1813374;79;21143;-75
2021/03/25 05:41:00;;;;;;;6.92;2.67;;;2.10;54.20;;;;;;1813787;78;21142;-76
2021/03/25 05:43:54;;;;;;;7.12;2.62;;;2.00;54.00;;;;;;1813105;79;21308;-75
2021/03/25 05:46:36;;;;;;;8.53;2.85;;;2.00;54.30;;;;;;1789516;79;21130;-75
2021/03/25 05:49:28;;;;;;;6.60;3.08;;;1.90;54.40;;;;;;1799436;79;21632;-75
2021/03/25 05:52:31;;;;;;;8.63;3.50;;;2.00;54.80;;;;;;1781426;79;21096;-74
2021/03/25 05:55:26;;;;;;;8.25;3.87;;;2.10;54.30;;;;;;1786328;79;21565;-75
2021/03/25 05:58:32;;;;;;;6.55;3.05;;;2.20;54.80;;;;;;1781214;79;21135;-76
2021/03/25 06:01:28;;;;;;;10.75;3.90;;;2.20;55.00;;;;;;1784007;79;21130;-75
2021/03/25 06:04:07;;;;;;;8.20;3.70;;;2.20;54.40;;;;;;1788445;79;21146;-75
2021/03/25 06:06:52;;;;;;;9.18;3.80;;;2.20;54.50;;;;;;1798514;79;21260;-75
2021/03/25 06:09:47;;;;;;;13.75;4.17;;;2.10;54.90;;;;;;1798757;79;21131;-76
2021/03/25 06:12:45;;;;;;;8.75;3.70;;;2.10;54.70;;;;;;1789082;79;21146;-75
2021/03/25 06:16:08;;;;;;;11.10;3.80;;;2.20;54.80;;;;;;1789392;79;21585;-75
2021/03/25 06:19:30;;;;;;;13.35;4.22;;;2.20;54.40;;;;;;1789488;79;21150;-75
2021/03/25 06:22:09;;;;;;;10.45;4.42;;;2.20;54.40;;;;;;1786616;79;21138;-75
2021/03/25 06:24:57;;;;;;;16.45;4.40;;;2.10;54.00;;;;;;1784146;79;21119;-76
2021/03/25 06:27:47;;;;;;;14.13;4.72;;;2.20;54.60;;;;;;1763543;79;21116;-75
2021/03/25 06:30:38;;;;;;;12.58;4.72;;;2.30;54.10;;;;;;1769904;79;21601;-75
2021/03/25 06:33:21;;;;;;;14.20;4.70;;;2.40;53.80;;;;;;1784554;79;21569;-76
2021/03/25 06:35:54;;;;;;;13.85;6.12;;;2.50;53.70;;;;;;1789158;79;21103;-75
2021/03/25 06:38:52;;;;;;;15.75;5.90;;;2.60;53.50;;;;;;1781027;79;21159;-72
2021/03/25 06:41:25;;;;;;;17.02;6.22;;;2.50;53.70;;;;;;1773048;79;21166;-74
2021/03/25 06:44:02;;;;;;;15.15;5.53;;;2.30;54.30;;;;;;1788091;79;21249;-77
2021/03/25 06:46:41;;;;;;;13.08;5.62;;;2.30;55.00;;;;;;1789684;79;21151;-76
2021/03/25 06:49:44;;;;;;;15.30;6.65;;;2.50;54.90;;;;;;1789436;79;21139;-76
2021/03/25 06:52:29;;;;;;;24.18;6.90;;;2.70;54.80;;;;;;1783464;79;21554;-74
2021/03/25 06:55:05;;;;;;;20.65;7.78;;;2.80;54.20;;;;;;1788825;79;21107;-75
2021/03/25 06:57:48;;;;;;;19.67;7.03;;;2.90;54.10;;;;;;1786269;79;21135;-77
2021/03/25 07:00:20;;;;;;;17.15;7.28;;;2.90;54.30;;;;;;1788692;79;21126;-79
2021/03/25 07:02:49;;;;;;;18.15;6.22;;;2.90;54.10;;;;;;1788481;79;21127;-78
2021/03/25 07:05:26;;;;;;;11.40;5.08;;;3.00;53.50;;;;;;1770233;80;21139;-77
2021/03/25 07:08:16;;;;;;;16.35;5.22;;;3.30;52.30;;;;;;1787203;79;21103;-76
2021/03/25 07:10:46;;;;;;;11.97;5.45;;;3.40;52.10;;;;;;1784880;79;21151;-79
2021/03/25 07:13:22;;;;;;;11.20;4.47;;;3.40;51.40;;;;;;1785655;79;21158;-76
2021/03/25 07:16:04;;;;;;;10.72;4.95;;;3.40;50.80;;;;;;1788535;79;28032;-76
2021/03/25 07:18:37;;;;;;;9.58;4.30;;;3.40;50.60;;;;;;1783953;80;21902;-78
2021/03/25 07:21:32;;;;;;;10.00;4.50;;;3.40;50.50;;;;;;1778496;80;21602;-78
2021/03/25 07:24:25;;;;;;;8.20;3.67;;;3.60;50.90;;;;;;1771907;79;23384;-76
2021/03/25 07:27:03;;;;;;;8.88;3.55;;;3.50;50.30;;;;;;1740139;82;21149;-78
2021/03/25 07:29:35;;;;;;;9.75;4.00;;;3.70;50.30;;;;;;1740393;82;21156;-77
2021/03/25 07:32:12;;;;;;;7.55;3.40;;;3.80;49.50;;;;;;1737463;82;21203;-77
2021/03/25 07:34:50;;;;;;;12.63;4.50;;;3.90;49.50;;;;;;1737215;82;21141;-79
2021/03/25 07:37:36;;;;;;;8.18;3.50;;;3.90;49.60;;;;;;1737248;82;21193;-76
2021/03/25 07:40:09;;;;;;;9.18;3.22;;;4.10;49.60;;;;;;1736406;82;21133;-78
2021/03/25 07:42:39;;;;;;;12.05;3.95;;;4.20;49.10;;;;;;1738750;82;21182;-78
2021/03/25 07:45:31;;;;;;;8.63;3.83;;;4.30;49.10;;;;;;1753912;82;21158;-75
2021/03/25 07:48:25;;;;;;;9.53;3.90;;;4.50;48.70;;;;;;1723730;82;21165;-77
2021/03/25 07:51:10;;;;;;;9.55;4.45;;;4.60;48.50;;;;;;1754057;82;21126;-77
2021/03/25 07:53:39;;;;;;;8.80;3.67;;;5.00;47.50;;;;;;1740628;82;21178;-76
2021/03/25 07:56:14;;;;;;;9.93;4.03;;;5.30;46.30;;;;;;1737596;81;21150;-77
2021/03/25 07:58:47;;;;;;;9.43;4.05;;;5.90;46.10;;;;;;1736793;82;21152;-77
2021/03/25 08:01:23;;;;;;;8.83;3.65;;;6.50;44.60;;;;;;1737589;82;21149;-75
2021/03/25 08:04:00;;;;;;;8.85;3.42;;;7.10;43.60;;;;;;1737272;81;21137;-74
2021/03/25 08:06:40;;;;;;;9.58;3.47;;;7.90;42.10;;;;;;1704631;83;21168;-76
2021/03/25 08:09:16;;;;;;;10.30;3.40;;;8.90;39.30;;;;;;1704844;83;21145;-77
2021/03/25 08:12:02;;;;;;;7.72;3.25;;;9.60;36.30;;;;;;1689987;85;21571;-77
2021/03/25 08:14:36;;;;;;;12.00;3.62;;;10.30;34.10;;;;;;1675725;85;21152;-76
2021/03/25 08:17:14;;;;;;;8.15;3.02;;;11.30;33.00;;;;;;1666108;85;21156;-77
2021/03/25 08:20:05;;;;;;;7.58;3.10;;;11.90;30.90;;;;;;1681527;85;21136;-77
2021/03/25 08:22:50;;;;;;;7.85;3.55;;;12.80;29.30;;;;;;1682390;84;21193;-74
2021/03/25 08:25:34;;;;;;;6.72;3.30;;;13.50;28.90;;;;;;1681941;84;21148;-74
2021/03/25 08:28:13;;;;;;;9.78;4.03;;;13.60;27.80;;;;;;1693649;84;21162;-74
2021/03/25 08:31:22;;;;;;;11.12;3.55;;;14.10;27.30;;;;;;1722750;82;21157;-74
2021/03/25 08:34:32;;;;;;;7.03;3.45;;;14.70;27.00;;;;;;1725501;82;21139;-72
2021/03/25 08:37:18;;;;;;;9.28;4.87;;;14.80;26.60;;;;;;1724864;82;21142;-78
2021/03/25 08:40:00;;;;;;;5.30;3.17;;;14.60;26.50;;;;;;1722919;82;21135;-82
2021/03/25 08:42:58;;;;;;;6.92;2.87;;;14.60;26.10;;;;;;1723546;82;21122;-78
2021/03/25 09:04:08;;;;;;;7.25;3.20;;;14.30;26.00;;;;;;1810120;77;22372;-74
2021/03/25 09:06:43;;;;;;;8.73;3.40;;;14.60;26.20;;;;;;1796089;79;21263;-78
2021/03/25 09:09:50;;;;;;;9.50;3.22;;;14.40;27.10;;;;;;1795663;79;21155;-75
2021/03/25 09:12:27;;;;;;;8.18;3.52;;;13.90;26.80;;;;;;1833762;78;21246;-78
2021/03/25 09:14:58;;;;;;;7.80;2.83;;;13.40;26.90;;;;;;1801952;79;21146;-78
2021/03/25 09:17:40;;;;;;;6.15;3.20;;;13.20;26.80;;;;;;1806289;79;21119;-79
2021/03/25 09:20:14;;;;;;;8.43;2.98;;;13.10;27.60;;;;;;1838462;78;21286;-80
2021/03/25 09:22:51;;;;;;;6.03;2.83;;;13.00;27.80;;;;;;1802433;79;21146;-78
2021/03/25 09:25:36;;;;;;;7.47;3.12;;;12.90;28.20;;;;;;1799993;78;21147;-78
2021/03/25 09:28:18;;;;;;;6.17;3.47;;;12.60;27.60;;;;;;1806569;78;21170;-79
2021/03/25 09:31:11;;;;;;;7.78;3.10;;;12.20;28.30;;;;;;1812025;78;21113;-76
2021/03/25 09:33:52;;;;;;;5.42;2.60;;;12.00;28.30;;;;;;1805484;78;21135;-77
2021/03/25 09:36:26;;;;;;;5.78;2.90;;;12.00;29.10;;;;;;1814801;78;21136;-79
2021/03/25 09:39:05;;;;;;;5.97;2.70;;;11.80;29.00;;;;;;1840879;77;21681;-77
2021/03/25 09:41:42;;;;;;;5.40;2.70;;;11.80;29.10;;;;;;1804158;79;21191;-78
2021/03/25 09:44:18;;;;;;;4.70;2.80;;;11.60;29.70;;;;;;1803812;79;21123;-78
2021/03/25 09:47:02;;;;;;;6.40;3.17;;;11.50;29.30;;;;;;1802807;79;21572;-79
2021/03/25 09:49:36;;;;;;;8.03;2.92;;;11.50;30.00;;;;;;1803591;79;21114;-78
2021/03/25 09:52:25;;;;;;;5.70;2.85;;;11.40;29.40;;;;;;1802494;79;21122;-79
2021/03/25 09:54:59;;;;;;;6.33;3.20;;;11.20;29.50;;;;;;1804401;79;21604;-81
2021/03/25 09:57:35;;;;;;;5.53;3.10;;;11.00;29.40;;;;;;1802753;79;21166;-82
2021/03/25 10:00:31;;;;;;;6.42;2.77;;;10.90;29.60;;;;;;1802028;79;21560;-81
2021/03/25 10:03:06;;;;;;;6.92;3.40;;;10.60;30.60;;;;;;1797054;78;21139;-81
2021/03/25 10:05:40;;;;;;;6.95;3.62;;;10.60;30.80;;;;;;1788319;80;21159;-83
2021/03/25 10:08:19;;;;;;;7.55;3.02;;;10.30;30.30;;;;;;1786430;80;21155;-86
2021/03/25 10:11:00;;;;;;;5.45;2.92;;;10.40;30.50;;;;;;1786201;80;21148;-84
2021/03/25 10:13:41;;;;;;;6.17;3.30;;;10.20;30.10;;;;;;1786185;80;21127;-85
2021/03/25 10:16:36;;;;;;;6.55;2.77;;;9.70;29.90;;;;;;1786530;80;21557;-86
2021/03/25 10:19:11;;;;;;;7.58;3.05;;;9.60;31.70;;;;;;1788746;78;21120;-81
2021/03/25 10:22:01;;;;;;;5.25;2.75;;;9.60;31.10;;;;;;1788819;80;21572;-80
2021/03/25 10:24:52;;;;;;;9.15;3.37;;;9.60;30.60;;;;;;1786760;80;21608;-86
2021/03/25 10:27:38;;;;;;;6.85;2.95;;;9.40;32.20;;;;;;1787751;79;21616;-90
2021/03/25 10:30:20;;;;;;;6.25;2.70;;;9.40;32.90;;;;;;1791625;80;21316;-92
2021/03/25 10:32:49;;;;;;;6.80;2.52;;;9.50;32.70;;;;;;1786863;80;21144;-86
2021/03/25 10:35:31;;;;;;;5.80;2.65;;;9.80;32.10;;;;;;1788959;80;21143;-93
2021/03/25 10:38:08;;;;;;;7.25;3.10;;;9.90;33.00;;;;;;1787952;80;21179;-86
2021/03/25 10:40:48;;;;;;;6.80;3.35;;;10.00;32.50;;;;;;1787851;80;21138;-87
2021/03/25 10:43:21;;;;;;;7.87;3.27;;;10.00;32.70;;;;;;1788404;80;21549;-87
2021/03/25 10:45:53;;;;;;;5.50;2.75;;;10.00;32.20;;;;;;1784520;80;21152;-86
2021/03/25 10:48:35;;;;;;;8.35;3.37;;;10.10;32.60;;;;;;1787057;80;21135;-83
2021/03/25 10:51:17;;;;;;;5.55;2.92;;;10.30;32.90;;;;;;1785446;80;21084;-83
2021/03/25 10:53:57;;;;;;;6.97;2.77;;;10.20;31.60;;;;;;1786100;80;21115;-83
2021/03/25 10:56:39;;;;;;;12.10;3.10;;;10.20;32.40;;;;;;1796034;78;21671;-86
2021/03/25 10:59:17;;;;;;;7.67;3.30;;;10.10;32.90;;;;;;1799611;78;21127;-83
2021/03/25 11:01:57;;;;;;;6.80;3.17;;;9.90;34.00;;;;;;1791689;78;21139;-83
2021/03/25 11:04:32;;;;;;;7.17;3.42;;;9.80;34.40;;;;;;1789076;79;21162;-76
2021/03/25 11:07:14;;;;;;;5.40;3.12;;;9.60;33.90;;;;;;1790361;80;21163;-83
2021/03/25 11:09:56;;;;;;;6.25;2.80;;;9.60;34.00;;;;;;1803066;78;21197;-83
2021/03/25 11:12:30;;;;;;;7.78;3.00;;;9.60;34.40;;;;;;1816320;78;21119;-86
2021/03/25 11:15:04;;;;;;;9.80;3.50;;;9.50;33.70;;;;;;1791856;80;21294;-83
2021/03/25 11:17:39;;;;;;;5.28;3.10;;;9.60;34.20;;;;;;1797072;78;21264;-76
2021/03/25 11:20:13;;;;;;;7.05;3.35;;;9.40;34.10;;;;;;1786151;78;21082;-75
2021/03/25 11:22:42;;;;;;;5.42;3.17;;;9.40;34.40;;;;;;1806918;78;21543;-78
2021/03/25 11:25:18;;;;;;;8.73;3.67;;;9.40;34.30;;;;;;1781316;80;21678;-77
2021/03/25 11:27:46;;;;;;;8.13;3.35;;;9.50;33.80;;;;;;1800068;78;21123;-77
2021/03/25 11:30:39;;;;;;;6.53;3.10;;;9.50;33.40;;;;;;1796414;78;21310;-77
2021/03/25 11:33:32;;;;;;;5.10;2.95;;;9.60;33.70;;;;;;1760739;81;21170;-77
2021/03/25 11:36:03;;;;;;;4.97;2.98;;;9.80;33.00;;;;;;1817976;78;21342;-78
2021/03/25 11:38:39;;;;;;;6.53;3.30;;;9.70;32.40;;;;;;1829010;78;21150;-75
2021/03/25 11:41:17;;;;;;;12.43;3.55;;;9.70;32.50;;;;;;1796911;79;21533;-77
2021/03/25 11:43:56;;;;;;;6.15;3.10;;;9.60;32.80;;;;;;1786277;80;21191;-75
2021/03/25 11:46:38;;;;;;;6.10;3.20;;;9.60;33.10;;;;;;1837672;77;21251;-78
2021/03/25 11:49:12;;;;;;;6.37;3.30;;;9.40;33.00;;;;;;1829576;77;21142;-75
2021/03/25 11:51:45;;;;;;;6.85;3.00;;;9.40;33.30;;;;;;1827476;78;21204;-77
2021/03/25 11:54:30;;;;;;;5.87;3.30;;;9.60;33.90;;;;;;1816423;78;21139;-76
2021/03/25 11:57:22;;;;;;;7.45;3.77;;;9.80;32.90;;;;;;1809222;78;21139;-77
2021/03/25 12:00:13;;;;;;;7.20;3.10;;;9.40;31.50;;;;;;1814612;78;21120;-76
2021/03/25 12:02:43;;;;;;;6.72;2.85;;;9.60;32.50;;;;;;1816181;77;21182;-76
2021/03/25 12:05:41;;;;;;;6.80;2.92;;;9.80;31.60;;;;;;1809999;78;21168;-67
2021/03/25 12:08:15;;;;;;;;;;;9.90;31.20;;;;;;1785718;80;21624;-79
2021/03/25 12:10:44;;;;;;;6.22;3.05;;;10.00;30.30;;;;;;1784162;80;20569;-80
2021/03/25 12:13:13;;;;;;;6.53;3.02;;;10.00;30.60;;;;;;1787827;80;21552;-87
2021/03/25 12:15:41;;;;;;;6.80;2.90;;;10.20;31.60;;;;;;1789105;78;21100;-85
2021/03/25 12:18:26;;;;;;;5.62;3.15;;;10.20;31.10;;;;;;1809398;78;21570;-85
2021/03/25 12:21:09;;;;;;;7.22;3.15;;;10.30;31.10;;;;;;1801302;77;22933;-83
2021/03/25 12:23:43;;;;;;;8.03;3.08;;;10.50;31.20;;;;;;1805413;78;21149;-85
2021/03/25 12:26:15;;;;;;;6.20;3.35;;;10.50;29.70;;;;;;1800321;78;21116;-74
2021/03/25 12:28:43;;;;;;;7.55;2.92;;;10.50;29.80;;;;;;1817211;78;21147;-77
2021/03/25 12:31:18;;;;;;;6.45;3.33;;;10.60;30.00;;;;;;1798167;79;21129;-79
2021/03/25 12:33:48;;;;;;;9.60;3.65;;;10.70;29.50;;;;;;1801110;78;21116;-78
2021/03/25 12:36:17;;;;;;;5.90;2.95;;;10.80;29.00;;;;;;1797912;80;21169;-77
2021/03/25 12:38:45;;;;;;;7.75;3.67;;;10.80;29.60;;;;;;1805027;78;22294;-78
2021/03/25 12:41:35;;;;;;;6.42;3.47;;;10.70;28.70;;;;;;1793991;80;21176;-80
2021/03/25 12:44:05;;;;;;;8.13;3.50;;;10.80;28.70;;;;;;1805405;78;21141;-78
2021/03/25 12:46:33;;;;;;;7.85;3.67;;;10.80;29.20;;;;;;1797922;80;21133;-77
2021/03/25 12:49:02;;;;;;;6.28;3.22;;;10.80;29.60;;;;;;1801106;78;21566;-75
2021/03/25 12:51:30;;;;;;;8.28;3.65;;;10.90;29.90;;;;;;1797669;80;21125;-79
2021/03/25 12:53:58;;;;;;;9.88;3.42;;;10.90;29.70;;;;;;1801702;78;21128;-77
2021/03/25 12:56:31;;;;;;;7.35;3.77;;;10.90;29.30;;;;;;1801360;78;21180;-82
2021/03/25 12:59:04;;;;;;;7.92;4.00;;;10.80;29.10;;;;;;1808128;78;21583;-83
2021/03/25 13:01:33;;;;;;;7.55;4.03;;;10.70;29.00;;;;;;1806888;78;21137;-80
2021/03/25 13:04:02;;;;;;;12.05;4.60;;;10.70;28.90;;;;;;1827917;78;21148;-81
2021/03/25 13:06:31;;;;;;;8.33;4.37;;;10.70;29.20;;;;;;1827861;78;21231;-75
2021/03/25 13:08:59;;;;;;;9.85;4.42;;;10.70;28.80;;;;;;1828027;78;21564;-81
2021/03/25 13:11:29;;;;;;;8.30;3.67;;;10.80;29.40;;;;;;1827788;78;21137;-79
2021/03/25 13:13:59;;;;;;;7.50;3.98;;;11.00;29.60;;;;;;1803028;78;21166;-79
2021/03/25 13:16:27;;;;;;;7.75;4.47;;;11.10;29.40;;;;;;1799489;78;21153;-80
2021/03/25 13:18:55;;;;;;;8.03;4.33;;;11.10;27.70;;;;;;1809477;78;21200;-74
2021/03/25 13:21:25;;;;;;;9.43;4.20;;;11.10;28.60;;;;;;1819492;79;21306;-77
2021/03/25 13:23:52;;;;;;;7.95;3.92;;;11.20;28.20;;;;;;1797202;79;21156;-76
2021/03/25 13:26:20;;;;;;;9.45;4.80;;;11.30;28.80;;;;;;1796337;79;21157;-74
2021/03/25 13:28:50;;;;;;;12.07;4.58;;;11.30;28.60;;;;;;1789051;79;21176;-75
2021/03/25 13:31:18;;;;;;;6.47;3.62;;;11.40;29.10;;;;;;1788206;79;21153;-76
2021/03/25 13:33:46;;;;;;;9.98;4.05;;;11.50;28.60;;;;;;1792017;79;21168;-76
2021/03/25 13:36:14;;;;;;;9.25;4.12;;;11.50;28.60;;;;;;1813917;79;21184;-76
2021/03/25 13:38:42;;;;;;;12.78;4.17;;;11.40;28.10;;;;;;1817483;79;21161;-76
2021/03/25 13:41:09;;;;;;;9.23;4.65;;;11.50;28.30;;;;;;1806180;79;21646;-76
2021/03/25 13:43:37;;;;;;;8.55;3.80;;;11.50;27.80;;;;;;1785972;80;21145;-77
2021/03/25 13:46:05;;;;;;;10.13;4.58;;;11.40;27.60;;;;;;1788207;78;21529;-77
2021/03/25 13:48:36;;;;;;;9.15;5.03;;;11.30;28.20;;;;;;1790946;78;21129;-71
2021/03/25 13:51:06;;;;;;;10.90;4.60;;;11.40;28.70;;;;;;1787417;78;21147;-73
2021/03/25 13:53:34;;;;;;;8.40;4.35;;;11.40;28.20;;;;;;1786844;78;21629;-70
2021/03/25 13:56:03;;;;;;;8.65;4.25;;;11.40;28.20;;;;;;1797322;78;21635;-72
2021/03/25 13:58:31;;;;;;;9.68;4.53;;;11.50;28.90;;;;;;1818736;79;21192;-70
2021/03/25 14:01:01;;;;;;;8.45;4.50;;;11.30;28.10;;;;;;1819196;79;21176;-70
2021/03/25 14:03:29;;;;;;;9.10;4.50;;;11.20;28.30;;;;;;1818812;79;21156;-72
2021/03/25 14:05:57;;;;;;;9.08;4.03;;;11.10;28.40;;;;;;1818690;79;21157;-72
2021/03/25 14:08:25;;;;;;;10.15;3.95;;;11.10;28.60;;;;;;1818075;79;21121;-74
2021/03/25 14:10:53;;;;;;;11.90;4.10;;;11.10;28.60;;;;;;1793321;79;21580;-75